sensor_id;sensor_type;location;lat;lon;timestamp;P1;durP1;ratioP1;P2;durP2;ratioP2
40074;SDS011;26529;51.530;11.754;2023-03-21T00:00:36;10.20;;;2.55;;
40074;SDS011;26529;51.530;11.754;2023-03-21T00:03:02;10.55;;;2.65;;
40074;SDS011;26529;51.530;11.754;2023-03-21T00:05:27;8.10;;;2.40;;
40074;SDS011;26529;51.530;11.754;2023-03-21T00:07:53;15.38;;;3.10;;
40074;SDS011;26529;51.530;11.754;2023-03-21T00:10:19;9.80;;;2.95;;
40074;SDS011;26529;51.530;11.754;2023-03-21T00:12:45;9.88;;;2.70;;
40074;SDS011;26529;51.530;11.754;2023-03-21T00:15:14;9.75;;;2.72;;
40074;SDS011;26529;51.530;11.754;2023-03-21T00:17:42;9.02;;;3.13;;
40074;SDS011;26529;51.530;11.754;2023-03-21T00:20:09;8.25;;;2.60;;
40074;SDS011;26529;51.530;11.754;2023-03-21T00:22:39;9.25;;;2.70;;
40074;SDS011;26529;51.530;11.754;2023-03-21T00:25:05;11.68;;;2.50;;
40074;SDS011;26529;51.530;11.754;2023-03-21T00:27:32;12.25;;;3.15;;
40074;SDS011;26529;51.530;11.754;2023-03-21T00:29:58;9.82;;;2.58;;
40074;SDS011;26529;51.530;11.754;2023-03-21T00:32:23;9.00;;;2.67;;
40074;SDS011;26529;51.530;11.754;2023-03-21T00:34:49;9.75;;;2.88;;
40074;SDS011;26529;51.530;11.754;2023-03-21T00:37:16;8.05;;;2.40;;
40074;SDS011;26529;51.530;11.754;2023-03-21T00:39:43;13.50;;;2.70;;
40074;SDS011;26529;51.530;11.754;2023-03-21T00:42:12;12.00;;;2.65;;
40074;SDS011;26529;51.530;11.754;2023-03-21T00:44:38;5.55;;;2.33;;
40074;SDS011;26529;51.530;11.754;2023-03-21T00:47:04;11.63;;;3.05;;
40074;SDS011;26529;51.530;11.754;2023-03-21T00:49:32;8.98;;;3.10;;
40074;SDS011;26529;51.530;11.754;2023-03-21T00:52:00;7.32;;;2.03;;
40074;SDS011;26529;51.530;11.754;2023-03-21T00:54:26;11.23;;;2.60;;
40074;SDS011;26529;51.530;11.754;2023-03-21T00:56:52;9.88;;;2.65;;
40074;SDS011;26529;51.530;11.754;2023-03-21T00:59:18;8.73;;;2.72;;
40074;SDS011;26529;51.530;11.754;2023-03-21T01:01:43;7.60;;;2.17;;
40074;SDS011;26529;51.530;11.754;2023-03-21T01:04:11;8.52;;;2.38;;
40074;SDS011;26529;51.530;11.754;2023-03-21T01:06:39;7.38;;;2.58;;
40074;SDS011;26529;51.530;11.754;2023-03-21T01:09:08;10.63;;;2.72;;
40074;SDS011;26529;51.530;11.754;2023-03-21T01:11:37;7.47;;;3.20;;
40074;SDS011;26529;51.530;11.754;2023-03-21T01:14:02;12.30;;;2.92;;
40074;SDS011;26529;51.530;11.754;2023-03-21T01:16:28;8.10;;;1.90;;
40074;SDS011;26529;51.530;11.754;2023-03-21T01:18:53;12.65;;;2.40;;
40074;SDS011;26529;51.530;11.754;2023-03-21T01:21:20;10.38;;;2.95;;
40074;SDS011;26529;51.530;11.754;2023-03-21T01:23:46;9.50;;;2.42;;
40074;SDS011;26529;51.530;11.754;2023-03-21T01:26:12;9.02;;;2.45;;
40074;SDS011;26529;51.530;11.754;2023-03-21T01:28:39;7.85;;;2.90;;
40074;SDS011;26529;51.530;11.754;2023-03-21T01:31:06;11.32;;;2.42;;
40074;SDS011;26529;51.530;11.754;2023-03-21T01:33:33;10.27;;;2.92;;
40074;SDS011;26529;51.530;11.754;2023-03-21T01:35:59;13.38;;;2.63;;
40074;SDS011;26529;51.530;11.754;2023-03-21T01:38:28;10.07;;;2.10;;
40074;SDS011;26529;51.530;11.754;2023-03-21T01:40:54;10.48;;;2.63;;
40074;SDS011;26529;51.530;11.754;2023-03-21T01:43:28;8.32;;;2.03;;
40074;SDS011;26529;51.530;11.754;2023-03-21T01:46:06;8.85;;;2.50;;
40074;SDS011;26529;51.530;11.754;2023-03-21T01:49:01;10.45;;;2.42;;
40074;SDS011;26529;51.530;11.754;2023-03-21T01:51:31;9.98;;;2.60;;
40074;SDS011;26529;51.530;11.754;2023-03-21T01:54:01;8.50;;;2.42;;
40074;SDS011;26529;51.530;11.754;2023-03-21T01:56:32;10.30;;;2.60;;
40074;SDS011;26529;51.530;11.754;2023-03-21T01:59:05;8.02;;;2.42;;
40074;SDS011;26529;51.530;11.754;2023-03-21T02:01:48;6.60;;;2.25;;
40074;SDS011;26529;51.530;11.754;2023-03-21T02:04:19;8.60;;;2.42;;
40074;SDS011;26529;51.530;11.754;2023-03-21T02:07:09;8.27;;;2.10;;
40074;SDS011;26529;51.530;11.754;2023-03-21T02:09:47;7.50;;;2.03;;
40074;SDS011;26529;51.530;11.754;2023-03-21T02:12:17;15.05;;;2.50;;
40074;SDS011;26529;51.530;11.754;2023-03-21T02:14:44;9.13;;;2.47;;
40074;SDS011;26529;51.530;11.754;2023-03-21T02:17:40;13.18;;;2.22;;
40074;SDS011;26529;51.530;11.754;2023-03-21T02:20:22;6.57;;;2.13;;
40074;SDS011;26529;51.530;11.754;2023-03-21T02:28:35;12.13;;;2.60;;
40074;SDS011;26529;51.530;11.754;2023-03-21T02:31:17;4.32;;;2.10;;
40074;SDS011;26529;51.530;11.754;2023-03-21T02:36:45;10.80;;;2.75;;
40074;SDS011;26529;51.530;11.754;2023-03-21T02:39:27;11.55;;;2.22;;
40074;SDS011;26529;51.530;11.754;2023-03-21T02:42:18;7.32;;;2.13;;
40074;SDS011;26529;51.530;11.754;2023-03-21T02:44:59;6.50;;;1.85;;
40074;SDS011;26529;51.530;11.754;2023-03-21T02:47:34;4.82;;;1.88;;
40074;SDS011;26529;51.530;11.754;2023-03-21T02:50:06;10.93;;;2.08;;
40074;SDS011;26529;51.530;11.754;2023-03-21T02:52:37;7.65;;;2.35;;
40074;SDS011;26529;51.530;11.754;2023-03-21T02:55:10;6.93;;;1.92;;
40074;SDS011;26529;51.530;11.754;2023-03-21T02:57:47;7.70;;;2.00;;
40074;SDS011;26529;51.530;11.754;2023-03-21T03:00:19;15.25;;;2.47;;
40074;SDS011;26529;51.530;11.754;2023-03-21T03:02:48;7.55;;;2.28;;
40074;SDS011;26529;51.530;11.754;2023-03-21T03:05:18;7.55;;;2.03;;
40074;SDS011;26529;51.530;11.754;2023-03-21T03:16:23;9.27;;;2.15;;
40074;SDS011;26529;51.530;11.754;2023-03-21T03:19:10;7.68;;;2.30;;
40074;SDS011;26529;51.530;11.754;2023-03-21T03:21:44;6.18;;;2.50;;
40074;SDS011;26529;51.530;11.754;2023-03-21T03:24:15;6.97;;;2.13;;
40074;SDS011;26529;51.530;11.754;2023-03-21T03:29:42;8.68;;;2.15;;
40074;SDS011;26529;51.530;11.754;2023-03-21T03:32:17;9.45;;;2.65;;
40074;SDS011;26529;51.530;11.754;2023-03-21T03:34:52;7.95;;;1.98;;
40074;SDS011;26529;51.530;11.754;2023-03-21T03:37:28;10.05;;;2.13;;
40074;SDS011;26529;51.530;11.754;2023-03-21T03:42:43;6.45;;;2.00;;
40074;SDS011;26529;51.530;11.754;2023-03-21T03:45:22;11.13;;;2.58;;
40074;SDS011;26529;51.530;11.754;2023-03-21T03:48:17;9.57;;;1.92;;
40074;SDS011;26529;51.530;11.754;2023-03-21T03:50:48;5.95;;;1.70;;
40074;SDS011;26529;51.530;11.754;2023-03-21T03:53:24;6.03;;;2.03;;
40074;SDS011;26529;51.530;11.754;2023-03-21T03:55:57;10.20;;;2.50;;
40074;SDS011;26529;51.530;11.754;2023-03-21T03:58:24;7.65;;;2.00;;
40074;SDS011;26529;51.530;11.754;2023-03-21T04:00:55;6.00;;;1.88;;
40074;SDS011;26529;51.530;11.754;2023-03-21T04:03:21;9.27;;;2.30;;
40074;SDS011;26529;51.530;11.754;2023-03-21T04:05:47;9.70;;;2.28;;
40074;SDS011;26529;51.530;11.754;2023-03-21T04:08:14;10.48;;;2.33;;
40074;SDS011;26529;51.530;11.754;2023-03-21T04:10:42;5.93;;;1.58;;
40074;SDS011;26529;51.530;11.754;2023-03-21T04:13:09;7.25;;;2.15;;
40074;SDS011;26529;51.530;11.754;2023-03-21T04:15:43;7.65;;;1.83;;
40074;SDS011;26529;51.530;11.754;2023-03-21T04:18:13;12.05;;;2.13;;
40074;SDS011;26529;51.530;11.754;2023-03-21T04:20:38;5.75;;;1.80;;
40074;SDS011;26529;51.530;11.754;2023-03-21T04:23:05;7.70;;;2.08;;
40074;SDS011;26529;51.530;11.754;2023-03-21T04:25:32;7.20;;;1.92;;
40074;SDS011;26529;51.530;11.754;2023-03-21T04:28:00;8.00;;;2.17;;
40074;SDS011;26529;51.530;11.754;2023-03-21T04:30:35;7.65;;;2.25;;
40074;SDS011;26529;51.530;11.754;2023-03-21T04:33:05;6.78;;;2.10;;
40074;SDS011;26529;51.530;11.754;2023-03-21T04:35:33;8.38;;;1.90;;
40074;SDS011;26529;51.530;11.754;2023-03-21T04:38:01;7.53;;;1.95;;
40074;SDS011;26529;51.530;11.754;2023-03-21T04:40:26;5.55;;;1.52;;
40074;SDS011;26529;51.530;11.754;2023-03-21T04:42:53;6.07;;;2.22;;
40074;SDS011;26529;51.530;11.754;2023-03-21T04:45:19;10.70;;;2.55;;
40074;SDS011;26529;51.530;11.754;2023-03-21T04:47:45;10.90;;;2.50;;
40074;SDS011;26529;51.530;11.754;2023-03-21T04:50:10;5.60;;;1.85;;
40074;SDS011;26529;51.530;11.754;2023-03-21T04:52:38;5.30;;;2.13;;
40074;SDS011;26529;51.530;11.754;2023-03-21T04:55:04;9.25;;;2.20;;
40074;SDS011;26529;51.530;11.754;2023-03-21T04:57:34;8.38;;;2.55;;
40074;SDS011;26529;51.530;11.754;2023-03-21T05:00:04;6.72;;;2.28;;
40074;SDS011;26529;51.530;11.754;2023-03-21T05:02:34;5.30;;;1.58;;
40074;SDS011;26529;51.530;11.754;2023-03-21T05:05:00;7.03;;;2.05;;
40074;SDS011;26529;51.530;11.754;2023-03-21T05:07:26;7.90;;;1.50;;
40074;SDS011;26529;51.530;11.754;2023-03-21T05:09:53;8.27;;;1.88;;
40074;SDS011;26529;51.530;11.754;2023-03-21T05:12:18;8.27;;;2.05;;
40074;SDS011;26529;51.530;11.754;2023-03-21T05:14:45;7.03;;;2.00;;
40074;SDS011;26529;51.530;11.754;2023-03-21T05:17:10;7.50;;;1.80;;
40074;SDS011;26529;51.530;11.754;2023-03-21T05:19:39;8.43;;;2.15;;
40074;SDS011;26529;51.530;11.754;2023-03-21T05:22:06;7.75;;;1.67;;
40074;SDS011;26529;51.530;11.754;2023-03-21T05:24:34;8.65;;;1.80;;
40074;SDS011;26529;51.530;11.754;2023-03-21T05:27:04;5.93;;;1.60;;
40074;SDS011;26529;51.530;11.754;2023-03-21T05:29:37;7.82;;;1.95;;
40074;SDS011;26529;51.530;11.754;2023-03-21T05:32:05;9.15;;;2.35;;
40074;SDS011;26529;51.530;11.754;2023-03-21T05:34:30;5.25;;;1.75;;
40074;SDS011;26529;51.530;11.754;2023-03-21T05:36:56;9.18;;;2.10;;
40074;SDS011;26529;51.530;11.754;2023-03-21T05:39:25;7.00;;;1.38;;
40074;SDS011;26529;51.530;11.754;2023-03-21T05:42:05;8.15;;;2.20;;
40074;SDS011;26529;51.530;11.754;2023-03-21T05:44:31;8.57;;;1.90;;
40074;SDS011;26529;51.530;11.754;2023-03-21T05:46:58;7.75;;;2.08;;
40074;SDS011;26529;51.530;11.754;2023-03-21T05:49:33;9.98;;;1.60;;
40074;SDS011;26529;51.530;11.754;2023-03-21T05:52:01;7.00;;;2.00;;
40074;SDS011;26529;51.530;11.754;2023-03-21T05:54:26;10.40;;;2.22;;
40074;SDS011;26529;51.530;11.754;2023-03-21T05:56:52;9.88;;;1.77;;
40074;SDS011;26529;51.530;11.754;2023-03-21T05:59:27;5.40;;;1.73;;
40074;SDS011;26529;51.530;11.754;2023-03-21T06:01:54;9.13;;;1.88;;
40074;SDS011;26529;51.530;11.754;2023-03-21T06:04:20;7.32;;;1.95;;
40074;SDS011;26529;51.530;11.754;2023-03-21T06:06:46;5.93;;;1.88;;
40074;SDS011;26529;51.530;11.754;2023-03-21T06:09:12;3.72;;;1.65;;
40074;SDS011;26529;51.530;11.754;2023-03-21T06:11:43;7.45;;;1.80;;
40074;SDS011;26529;51.530;11.754;2023-03-21T06:14:15;5.50;;;1.58;;
40074;SDS011;26529;51.530;11.754;2023-03-21T06:16:43;7.95;;;2.42;;
40074;SDS011;26529;51.530;11.754;2023-03-21T06:19:09;6.78;;;1.92;;
40074;SDS011;26529;51.530;11.754;2023-03-21T06:21:46;6.97;;;1.75;;
40074;SDS011;26529;51.530;11.754;2023-03-21T06:24:12;5.78;;;1.83;;
40074;SDS011;26529;51.530;11.754;2023-03-21T06:26:40;10.07;;;2.08;;
40074;SDS011;26529;51.530;11.754;2023-03-21T06:29:08;9.50;;;1.75;;
40074;SDS011;26529;51.530;11.754;2023-03-21T06:31:34;6.97;;;1.35;;
40074;SDS011;26529;51.530;11.754;2023-03-21T06:34:01;6.05;;;1.67;;
40074;SDS011;26529;51.530;11.754;2023-03-21T06:36:27;6.00;;;1.38;;
40074;SDS011;26529;51.530;11.754;2023-03-21T06:38:53;6.03;;;2.35;;
40074;SDS011;26529;51.530;11.754;2023-03-21T06:41:19;3.88;;;1.20;;
40074;SDS011;26529;51.530;11.754;2023-03-21T06:43:54;8.65;;;1.98;;
40074;SDS011;26529;51.530;11.754;2023-03-21T06:46:20;6.78;;;2.13;;
40074;SDS011;26529;51.530;11.754;2023-03-21T06:48:46;10.20;;;3.17;;
40074;SDS011;26529;51.530;11.754;2023-03-21T06:51:12;11.60;;;3.58;;
40074;SDS011;26529;51.530;11.754;2023-03-21T06:53:47;7.90;;;3.22;;
40074;SDS011;26529;51.530;11.754;2023-03-21T06:56:36;7.75;;;2.97;;
40074;SDS011;26529;51.530;11.754;2023-03-21T06:59:02;8.18;;;2.83;;
40074;SDS011;26529;51.530;11.754;2023-03-21T07:01:45;7.22;;;2.67;;
40074;SDS011;26529;51.530;11.754;2023-03-21T07:04:11;6.75;;;2.50;;
40074;SDS011;26529;51.530;11.754;2023-03-21T07:06:37;4.97;;;2.78;;
40074;SDS011;26529;51.530;11.754;2023-03-21T07:09:03;7.90;;;2.38;;
40074;SDS011;26529;51.530;11.754;2023-03-21T07:11:31;6.72;;;2.90;;
40074;SDS011;26529;51.530;11.754;2023-03-21T07:13:57;8.25;;;2.35;;
40074;SDS011;26529;51.530;11.754;2023-03-21T07:16:23;10.25;;;2.78;;
40074;SDS011;26529;51.530;11.754;2023-03-21T07:18:50;9.75;;;2.78;;
40074;SDS011;26529;51.530;11.754;2023-03-21T07:21:16;10.25;;;2.60;;
40074;SDS011;26529;51.530;11.754;2023-03-21T07:23:43;9.57;;;2.50;;
40074;SDS011;26529;51.530;11.754;2023-03-21T07:26:08;7.47;;;2.28;;
40074;SDS011;26529;51.530;11.754;2023-03-21T07:28:34;9.65;;;2.55;;
40074;SDS011;26529;51.530;11.754;2023-03-21T07:31:01;5.03;;;2.20;;
40074;SDS011;26529;51.530;11.754;2023-03-21T07:33:29;10.10;;;2.45;;
40074;SDS011;26529;51.530;11.754;2023-03-21T07:35:58;7.20;;;2.40;;
40074;SDS011;26529;51.530;11.754;2023-03-21T07:38:25;7.25;;;2.40;;
40074;SDS011;26529;51.530;11.754;2023-03-21T07:40:51;6.85;;;2.10;;
40074;SDS011;26529;51.530;11.754;2023-03-21T07:43:17;9.88;;;2.70;;
40074;SDS011;26529;51.530;11.754;2023-03-21T07:45:43;6.95;;;2.40;;
40074;SDS011;26529;51.530;11.754;2023-03-21T07:48:09;6.28;;;2.00;;
40074;SDS011;26529;51.530;11.754;2023-03-21T07:50:41;4.60;;;1.77;;
40074;SDS011;26529;51.530;11.754;2023-03-21T07:53:07;5.97;;;1.88;;
40074;SDS011;26529;51.530;11.754;2023-03-21T07:55:33;7.20;;;2.08;;
40074;SDS011;26529;51.530;11.754;2023-03-21T07:57:59;8.48;;;1.90;;
40074;SDS011;26529;51.530;11.754;2023-03-21T08:00:26;8.95;;;2.15;;
40074;SDS011;26529;51.530;11.754;2023-03-21T08:02:52;11.40;;;2.80;;
40074;SDS011;26529;51.530;11.754;2023-03-21T08:05:29;5.57;;;2.47;;
40074;SDS011;26529;51.530;11.754;2023-03-21T08:07:58;5.95;;;1.92;;
40074;SDS011;26529;51.530;11.754;2023-03-21T08:10:24;4.75;;;1.95;;
40074;SDS011;26529;51.530;11.754;2023-03-21T08:12:50;6.43;;;1.83;;
40074;SDS011;26529;51.530;11.754;2023-03-21T08:15:15;10.98;;;2.83;;
40074;SDS011;26529;51.530;11.754;2023-03-21T08:17:41;7.85;;;2.13;;
40074;SDS011;26529;51.530;11.754;2023-03-21T08:20:10;10.10;;;2.33;;
40074;SDS011;26529;51.530;11.754;2023-03-21T08:22:40;6.43;;;2.10;;
40074;SDS011;26529;51.530;11.754;2023-03-21T08:25:07;5.88;;;2.10;;
40074;SDS011;26529;51.530;11.754;2023-03-21T08:27:38;7.72;;;2.00;;
40074;SDS011;26529;51.530;11.754;2023-03-21T08:30:10;7.97;;;2.40;;
40074;SDS011;26529;51.530;11.754;2023-03-21T08:32:37;4.80;;;1.40;;
40074;SDS011;26529;51.530;11.754;2023-03-21T08:35:04;6.72;;;1.83;;
40074;SDS011;26529;51.530;11.754;2023-03-21T08:37:35;6.88;;;2.05;;
40074;SDS011;26529;51.530;11.754;2023-03-21T08:40:01;7.43;;;2.55;;
40074;SDS011;26529;51.530;11.754;2023-03-21T08:42:31;5.10;;;1.63;;
40074;SDS011;26529;51.530;11.754;2023-03-21T08:44:56;6.82;;;2.00;;
40074;SDS011;26529;51.530;11.754;2023-03-21T08:47:22;5.57;;;1.80;;
40074;SDS011;26529;51.530;11.754;2023-03-21T08:49:47;8.60;;;1.92;;
40074;SDS011;26529;51.530;11.754;2023-03-21T08:52:12;4.05;;;1.58;;
40074;SDS011;26529;51.530;11.754;2023-03-21T08:54:38;3.83;;;1.60;;
40074;SDS011;26529;51.530;11.754;2023-03-21T08:57:06;7.00;;;2.13;;
40074;SDS011;26529;51.530;11.754;2023-03-21T08:59:32;8.55;;;2.00;;
40074;SDS011;26529;51.530;11.754;2023-03-21T09:01:58;7.95;;;2.33;;
40074;SDS011;26529;51.530;11.754;2023-03-21T09:04:23;6.13;;;1.98;;
40074;SDS011;26529;51.530;11.754;2023-03-21T09:06:52;9.48;;;1.40;;
40074;SDS011;26529;51.530;11.754;2023-03-21T09:09:20;8.73;;;2.10;;
40074;SDS011;26529;51.530;11.754;2023-03-21T09:11:45;7.13;;;2.10;;
40074;SDS011;26529;51.530;11.754;2023-03-21T09:14:11;6.45;;;2.33;;
40074;SDS011;26529;51.530;11.754;2023-03-21T09:16:36;6.93;;;1.85;;
40074;SDS011;26529;51.530;11.754;2023-03-21T09:19:02;6.93;;;1.52;;
40074;SDS011;26529;51.530;11.754;2023-03-21T09:21:28;7.63;;;2.15;;
40074;SDS011;26529;51.530;11.754;2023-03-21T09:23:55;5.00;;;1.52;;
40074;SDS011;26529;51.530;11.754;2023-03-21T09:26:23;7.30;;;2.03;;
40074;SDS011;26529;51.530;11.754;2023-03-21T09:28:49;5.18;;;1.95;;
40074;SDS011;26529;51.530;11.754;2023-03-21T09:31:16;6.47;;;2.47;;
40074;SDS011;26529;51.530;11.754;2023-03-21T09:33:47;5.13;;;2.28;;
40074;SDS011;26529;51.530;11.754;2023-03-21T09:36:17;6.07;;;1.77;;
40074;SDS011;26529;51.530;11.754;2023-03-21T09:38:46;6.05;;;2.28;;
40074;SDS011;26529;51.530;11.754;2023-03-21T09:49:53;3.13;;;1.60;;
40074;SDS011;26529;51.530;11.754;2023-03-21T09:52:29;6.82;;;2.13;;
40074;SDS011;26529;51.530;11.754;2023-03-21T09:54:58;3.13;;;1.73;;
40074;SDS011;26529;51.530;11.754;2023-03-21T09:57:31;9.07;;;2.00;;
40074;SDS011;26529;51.530;11.754;2023-03-21T10:00:05;10.30;;;2.60;;
40074;SDS011;26529;51.530;11.754;2023-03-21T10:02:38;3.35;;;1.60;;
40074;SDS011;26529;51.530;11.754;2023-03-21T10:07:45;6.78;;;2.10;;
40074;SDS011;26529;51.530;11.754;2023-03-21T10:10:26;5.43;;;1.50;;
40074;SDS011;26529;51.530;11.754;2023-03-21T10:12:54;8.82;;;2.40;;
40074;SDS011;26529;51.530;11.754;2023-03-21T10:15:22;10.15;;;1.95;;
40074;SDS011;26529;51.530;11.754;2023-03-21T10:17:54;6.75;;;1.90;;
40074;SDS011;26529;51.530;11.754;2023-03-21T10:20:30;4.78;;;2.08;;
40074;SDS011;26529;51.530;11.754;2023-03-21T10:22:58;9.30;;;2.17;;
40074;SDS011;26529;51.530;11.754;2023-03-21T10:27:59;7.65;;;2.35;;
40074;SDS011;26529;51.530;11.754;2023-03-21T10:33:12;5.75;;;1.77;;
40074;SDS011;26529;51.530;11.754;2023-03-21T10:35:40;5.07;;;1.70;;
40074;SDS011;26529;51.530;11.754;2023-03-21T10:38:13;6.68;;;1.55;;
40074;SDS011;26529;51.530;11.754;2023-03-21T10:40:41;7.13;;;2.08;;
40074;SDS011;26529;51.530;11.754;2023-03-21T10:43:28;6.82;;;1.98;;
40074;SDS011;26529;51.530;11.754;2023-03-21T10:46:00;6.85;;;1.88;;
40074;SDS011;26529;51.530;11.754;2023-03-21T10:48:34;4.80;;;1.50;;
40074;SDS011;26529;51.530;11.754;2023-03-21T10:51:01;6.85;;;1.95;;
40074;SDS011;26529;51.530;11.754;2023-03-21T10:53:31;4.75;;;1.92;;
40074;SDS011;26529;51.530;11.754;2023-03-21T10:55:59;17.95;;;1.85;;
40074;SDS011;26529;51.530;11.754;2023-03-21T10:58:26;6.72;;;1.65;;
40074;SDS011;26529;51.530;11.754;2023-03-21T11:01:00;6.57;;;2.03;;
40074;SDS011;26529;51.530;11.754;2023-03-21T11:03:29;9.43;;;1.90;;
40074;SDS011;26529;51.530;11.754;2023-03-21T11:08:55;5.95;;;1.98;;
40074;SDS011;26529;51.530;11.754;2023-03-21T11:11:27;5.80;;;1.77;;
40074;SDS011;26529;51.530;11.754;2023-03-21T11:13:58;8.20;;;1.92;;
40074;SDS011;26529;51.530;11.754;2023-03-21T11:16:36;6.00;;;1.80;;
40074;SDS011;26529;51.530;11.754;2023-03-21T11:21:53;5.28;;;1.98;;
40074;SDS011;26529;51.530;11.754;2023-03-21T11:24:22;5.25;;;1.50;;
40074;SDS011;26529;51.530;11.754;2023-03-21T11:26:47;5.38;;;2.13;;
40074;SDS011;26529;51.530;11.754;2023-03-21T11:29:34;5.70;;;1.80;;
40074;SDS011;26529;51.530;11.754;2023-03-21T11:32:22;3.33;;;1.58;;
40074;SDS011;26529;51.530;11.754;2023-03-21T11:34:56;5.57;;;1.65;;
40074;SDS011;26529;51.530;11.754;2023-03-21T11:37:30;6.57;;;1.83;;
40074;SDS011;26529;51.530;11.754;2023-03-21T11:40:28;5.03;;;1.70;;
40074;SDS011;26529;51.530;11.754;2023-03-21T11:42:55;3.83;;;1.50;;
40074;SDS011;26529;51.530;11.754;2023-03-21T11:45:23;4.07;;;1.55;;
40074;SDS011;26529;51.530;11.754;2023-03-21T11:47:54;7.63;;;1.95;;
40074;SDS011;26529;51.530;11.754;2023-03-21T11:50:34;6.40;;;2.05;;
40074;SDS011;26529;51.530;11.754;2023-03-21T11:56:23;5.10;;;1.80;;
40074;SDS011;26529;51.530;11.754;2023-03-21T12:02:09;3.45;;;1.42;;
40074;SDS011;26529;51.530;11.754;2023-03-21T12:04:57;3.63;;;1.65;;
40074;SDS011;26529;51.530;11.754;2023-03-21T12:07:42;3.65;;;1.80;;
40074;SDS011;26529;51.530;11.754;2023-03-21T12:13:30;6.22;;;1.90;;
40074;SDS011;26529;51.530;11.754;2023-03-21T12:16:18;8.82;;;2.15;;
40074;SDS011;26529;51.530;11.754;2023-03-21T12:22:02;2.92;;;1.42;;
40074;SDS011;26529;51.530;11.754;2023-03-21T12:24:46;3.53;;;1.83;;
40074;SDS011;26529;51.530;11.754;2023-03-21T12:36:07;4.25;;;1.70;;
40074;SDS011;26529;51.530;11.754;2023-03-21T12:39:06;3.92;;;1.65;;
40074;SDS011;26529;51.530;11.754;2023-03-21T12:41:39;3.47;;;1.73;;
40074;SDS011;26529;51.530;11.754;2023-03-21T12:44:16;6.10;;;1.73;;
40074;SDS011;26529;51.530;11.754;2023-03-21T12:47:01;6.18;;;1.48;;
40074;SDS011;26529;51.530;11.754;2023-03-21T12:49:46;6.30;;;1.63;;
40074;SDS011;26529;51.530;11.754;2023-03-21T12:52:15;5.22;;;1.98;;
40074;SDS011;26529;51.530;11.754;2023-03-21T13:00:25;5.47;;;1.58;;
40074;SDS011;26529;51.530;11.754;2023-03-21T13:03:04;9.52;;;2.13;;
40074;SDS011;26529;51.530;11.754;2023-03-21T13:10:54;3.47;;;1.75;;
40074;SDS011;26529;51.530;11.754;2023-03-21T13:13:33;4.15;;;1.52;;
40074;SDS011;26529;51.530;11.754;2023-03-21T13:16:16;3.38;;;1.20;;
40074;SDS011;26529;51.530;11.754;2023-03-21T13:26:46;3.85;;;1.50;;
40074;SDS011;26529;51.530;11.754;2023-03-21T13:29:21;4.13;;;1.90;;
40074;SDS011;26529;51.530;11.754;2023-03-21T13:31:54;5.10;;;1.95;;
40074;SDS011;26529;51.530;11.754;2023-03-21T13:34:23;5.55;;;2.35;;
40074;SDS011;26529;51.530;11.754;2023-03-21T13:36:50;4.25;;;1.77;;
40074;SDS011;26529;51.530;11.754;2023-03-21T13:39:18;5.05;;;1.55;;
40074;SDS011;26529;51.530;11.754;2023-03-21T13:41:48;5.72;;;2.03;;
40074;SDS011;26529;51.530;11.754;2023-03-21T13:44:18;5.00;;;1.55;;
40074;SDS011;26529;51.530;11.754;2023-03-21T13:47:27;4.90;;;1.75;;
40074;SDS011;26529;51.530;11.754;2023-03-21T13:55:44;7.50;;;1.90;;
40074;SDS011;26529;51.530;11.754;2023-03-21T13:58:31;1.85;;;1.08;;
40074;SDS011;26529;51.530;11.754;2023-03-21T14:01:07;4.18;;;1.50;;
40074;SDS011;26529;51.530;11.754;2023-03-21T14:03:37;2.90;;;1.20;;
40074;SDS011;26529;51.530;11.754;2023-03-21T14:06:04;3.03;;;1.73;;
40074;SDS011;26529;51.530;11.754;2023-03-21T14:08:30;5.28;;;1.75;;
40074;SDS011;26529;51.530;11.754;2023-03-21T14:11:00;5.93;;;1.30;;
40074;SDS011;26529;51.530;11.754;2023-03-21T14:13:30;3.40;;;1.63;;
40074;SDS011;26529;51.530;11.754;2023-03-21T14:15:59;4.15;;;1.55;;
40074;SDS011;26529;51.530;11.754;2023-03-21T14:18:39;2.83;;;1.23;;
40074;SDS011;26529;51.530;11.754;2023-03-21T14:21:18;4.43;;;1.38;;
40074;SDS011;26529;51.530;11.754;2023-03-21T14:23:59;7.30;;;1.50;;
40074;SDS011;26529;51.530;11.754;2023-03-21T14:26:32;4.13;;;1.50;;
40074;SDS011;26529;51.530;11.754;2023-03-21T14:29:01;8.55;;;1.40;;
40074;SDS011;26529;51.530;11.754;2023-03-21T14:31:28;2.65;;;1.25;;
40074;SDS011;26529;51.530;11.754;2023-03-21T14:33:55;5.75;;;1.75;;
40074;SDS011;26529;51.530;11.754;2023-03-21T14:36:24;5.80;;;1.80;;
40074;SDS011;26529;51.530;11.754;2023-03-21T14:41:48;6.10;;;1.85;;
40074;SDS011;26529;51.530;11.754;2023-03-21T14:44:20;4.63;;;2.22;;
40074;SDS011;26529;51.530;11.754;2023-03-21T14:47:02;4.22;;;1.58;;
40074;SDS011;26529;51.530;11.754;2023-03-21T14:49:33;4.00;;;1.58;;
40074;SDS011;26529;51.530;11.754;2023-03-21T14:52:08;4.38;;;1.73;;
40074;SDS011;26529;51.530;11.754;2023-03-21T14:54:38;4.38;;;1.48;;
40074;SDS011;26529;51.530;11.754;2023-03-21T14:57:12;6.00;;;1.63;;
40074;SDS011;26529;51.530;11.754;2023-03-21T14:59:42;5.57;;;1.55;;
40074;SDS011;26529;51.530;11.754;2023-03-21T15:02:16;3.90;;;1.67;;
40074;SDS011;26529;51.530;11.754;2023-03-21T15:04:44;2.75;;;1.55;;
40074;SDS011;26529;51.530;11.754;2023-03-21T15:07:26;3.53;;;1.50;;
40074;SDS011;26529;51.530;11.754;2023-03-21T15:09:59;5.65;;;1.45;;
40074;SDS011;26529;51.530;11.754;2023-03-21T15:12:31;11.93;;;1.95;;
40074;SDS011;26529;51.530;11.754;2023-03-21T15:14:57;5.35;;;1.30;;
40074;SDS011;26529;51.530;11.754;2023-03-21T15:17:25;4.63;;;1.23;;
40074;SDS011;26529;51.530;11.754;2023-03-21T15:19:52;2.75;;;1.20;;
40074;SDS011;26529;51.530;11.754;2023-03-21T15:22:28;3.13;;;1.20;;
40074;SDS011;26529;51.530;11.754;2023-03-21T15:24:59;5.15;;;1.52;;
40074;SDS011;26529;51.530;11.754;2023-03-21T15:27:28;3.35;;;1.20;;
40074;SDS011;26529;51.530;11.754;2023-03-21T15:29:57;5.20;;;1.45;;
40074;SDS011;26529;51.530;11.754;2023-03-21T15:32:24;4.70;;;1.27;;
40074;SDS011;26529;51.530;11.754;2023-03-21T15:34:53;3.38;;;1.20;;
40074;SDS011;26529;51.530;11.754;2023-03-21T15:37:26;6.43;;;1.33;;
40074;SDS011;26529;51.530;11.754;2023-03-21T15:39:53;2.92;;;1.55;;
40074;SDS011;26529;51.530;11.754;2023-03-21T15:42:36;3.35;;;1.20;;
40074;SDS011;26529;51.530;11.754;2023-03-21T15:45:12;3.38;;;0.93;;
40074;SDS011;26529;51.530;11.754;2023-03-21T15:47:48;5.82;;;1.20;;
40074;SDS011;26529;51.530;11.754;2023-03-21T15:50:26;2.47;;;1.38;;
40074;SDS011;26529;51.530;11.754;2023-03-21T15:52:58;4.75;;;1.60;;
40074;SDS011;26529;51.530;11.754;2023-03-21T15:55:27;2.40;;;1.55;;
40074;SDS011;26529;51.530;11.754;2023-03-21T15:58:00;6.65;;;1.85;;
40074;SDS011;26529;51.530;11.754;2023-03-21T16:00:39;3.60;;;1.08;;
40074;SDS011;26529;51.530;11.754;2023-03-21T16:03:09;6.90;;;1.70;;
40074;SDS011;26529;51.530;11.754;2023-03-21T16:05:41;6.10;;;1.38;;
40074;SDS011;26529;51.530;11.754;2023-03-21T16:08:20;4.70;;;1.10;;
40074;SDS011;26529;51.530;11.754;2023-03-21T16:10:50;7.18;;;1.50;;
40074;SDS011;26529;51.530;11.754;2023-03-21T16:13:15;5.32;;;1.92;;
40074;SDS011;26529;51.530;11.754;2023-03-21T16:15:41;6.15;;;1.60;;
40074;SDS011;26529;51.530;11.754;2023-03-21T16:18:07;11.13;;;1.58;;
40074;SDS011;26529;51.530;11.754;2023-03-21T16:20:41;5.78;;;1.50;;
40074;SDS011;26529;51.530;11.754;2023-03-21T16:23:13;12.05;;;1.85;;
40074;SDS011;26529;51.530;11.754;2023-03-21T16:25:40;7.32;;;1.58;;
40074;SDS011;26529;51.530;11.754;2023-03-21T16:28:14;8.45;;;1.70;;